Aviation Digital Data Service (ADDS)

Output produced by METARs form (2158 UTC 21 August 2014)
found at http://aviationweather.gov/adds/metars/
 
KLEB 211743Z 2118/2218 19004KT P6SM -SHRA OVC040 
     FM220400 VRB03KT 4SM -SHRA BR OVC020 
     FM220800 00000KT 1/2SM FG OVC002 
     FM221400 16004KT 5SM BR BKN025